sensor_id;sensor_type;location;lat;lon;timestamp;pressure;altitude;pressure_sealevel;temperature;humidity
78383;BME280;67668;52.294;4.692;2024-01-27T00:00:53;103499.06;;;6.46;80.43
78383;BME280;67668;52.294;4.692;2024-01-27T00:03:18;103507.00;;;6.44;81.23
78383;BME280;67668;52.294;4.692;2024-01-27T00:05:44;103503.56;;;6.42;80.73
78383;BME280;67668;52.294;4.692;2024-01-27T00:08:09;103500.97;;;6.41;80.64
78383;BME280;67668;52.294;4.692;2024-01-27T00:10:34;103500.19;;;6.39;80.72
78383;BME280;67668;52.294;4.692;2024-01-27T00:13:00;103516.00;;;6.37;80.54
78383;BME280;67668;52.294;4.692;2024-01-27T00:15:25;103505.56;;;6.34;81.57
78383;BME280;67668;52.294;4.692;2024-01-27T00:17:50;103507.41;;;6.32;81.12
78383;BME280;67668;52.294;4.692;2024-01-27T00:20:16;103506.56;;;6.30;81.08
78383;BME280;67668;52.294;4.692;2024-01-27T00:22:41;103503.16;;;6.28;80.65
78383;BME280;67668;52.294;4.692;2024-01-27T00:25:06;103493.63;;;6.24;81.59
78383;BME280;67668;52.294;4.692;2024-01-27T00:27:32;103502.44;;;6.23;81.61
78383;BME280;67668;52.294;4.692;2024-01-27T00:29:58;103502.47;;;6.21;81.03
78383;BME280;67668;52.294;4.692;2024-01-27T00:32:23;103507.78;;;6.20;80.73
78383;BME280;67668;52.294;4.692;2024-01-27T00:34:48;103508.75;;;6.17;81.32
78383;BME280;67668;52.294;4.692;2024-01-27T00:37:13;103513.13;;;6.17;80.92
78383;BME280;67668;52.294;4.692;2024-01-27T00:39:39;103506.28;;;6.13;81.11
78383;BME280;67668;52.294;4.692;2024-01-27T00:42:04;103501.91;;;6.12;81.72
78383;BME280;67668;52.294;4.692;2024-01-27T00:44:29;103507.19;;;6.10;81.60
78383;BME280;67668;52.294;4.692;2024-01-27T00:46:55;103497.66;;;6.08;81.55
78383;BME280;67668;52.294;4.692;2024-01-27T00:49:20;103495.09;;;6.06;81.73
78383;BME280;67668;52.294;4.692;2024-01-27T00:51:45;103506.44;;;6.07;81.49
78383;BME280;67668;52.294;4.692;2024-01-27T00:54:11;103505.63;;;6.05;81.49
78383;BME280;67668;52.294;4.692;2024-01-27T00:56:36;103506.53;;;6.04;80.80
78383;BME280;67668;52.294;4.692;2024-01-27T00:59:01;103506.63;;;6.01;81.04
78383;BME280;67668;52.294;4.692;2024-01-27T01:01:27;103515.47;;;5.98;80.99
78383;BME280;67668;52.294;4.692;2024-01-27T01:03:52;103506.72;;;5.98;80.90
78383;BME280;67668;52.294;4.692;2024-01-27T01:06:17;103509.41;;;5.96;81.40
78383;BME280;67668;52.294;4.692;2024-01-27T01:08:43;103515.59;;;5.94;81.11
78383;BME280;67668;52.294;4.692;2024-01-27T01:11:08;103510.41;;;5.92;81.09
78383;BME280;67668;52.294;4.692;2024-01-27T01:13:33;103511.38;;;5.90;81.58
78383;BME280;67668;52.294;4.692;2024-01-27T01:15:59;103511.38;;;5.90;81.33
78383;BME280;67668;52.294;4.692;2024-01-27T01:18:24;103505.28;;;5.88;81.63
78383;BME280;67668;52.294;4.692;2024-01-27T01:20:49;103511.44;;;5.87;81.82
78383;BME280;67668;52.294;4.692;2024-01-27T01:23:14;103510.59;;;5.85;81.70
78383;BME280;67668;52.294;4.692;2024-01-27T01:25:40;103519.38;;;5.84;81.98
78383;BME280;67668;52.294;4.692;2024-01-27T01:28:05;103520.34;;;5.81;81.91
78383;BME280;67668;52.294;4.692;2024-01-27T01:30:30;103523.03;;;5.80;82.14
78383;BME280;67668;52.294;4.692;2024-01-27T01:32:56;103508.16;;;5.79;81.61
78383;BME280;67668;52.294;4.692;2024-01-27T01:35:21;103509.06;;;5.78;81.66
78383;BME280;67668;52.294;4.692;2024-01-27T01:37:47;103507.34;;;5.77;81.78
78383;BME280;67668;52.294;4.692;2024-01-27T01:40:13;103512.66;;;5.75;82.11
78383;BME280;67668;52.294;4.692;2024-01-27T01:42:40;103503.97;;;5.73;81.73
78383;BME280;67668;52.294;4.692;2024-01-27T01:45:06;103512.75;;;5.70;81.57
78383;BME280;67668;52.294;4.692;2024-01-27T01:47:31;103515.38;;;5.70;82.36
78383;BME280;67668;52.294;4.692;2024-01-27T01:49:57;103524.19;;;5.69;81.76
78383;BME280;67668;52.294;4.692;2024-01-27T01:52:23;103526.91;;;5.66;82.36
78383;BME280;67668;52.294;4.692;2024-01-27T01:54:49;103536.56;;;5.66;82.54
78383;BME280;67668;52.294;4.692;2024-01-27T01:57:15;103531.34;;;5.64;82.62
78383;BME280;67668;52.294;4.692;2024-01-27T01:59:41;103527.91;;;5.62;82.19
78383;BME280;67668;52.294;4.692;2024-01-27T02:02:09;103542.81;;;5.62;81.82
78383;BME280;67668;52.294;4.692;2024-01-27T02:04:44;103532.31;;;5.60;82.61
78383;BME280;67668;52.294;4.692;2024-01-27T02:07:11;103535.00;;;5.59;82.48
78383;BME280;67668;52.294;4.692;2024-01-27T02:09:36;103533.34;;;5.56;82.11
78383;BME280;67668;52.294;4.692;2024-01-27T02:12:02;103535.13;;;5.54;82.72
78383;BME280;67668;52.294;4.692;2024-01-27T02:14:27;103532.50;;;5.54;82.50
78383;BME280;67668;52.294;4.692;2024-01-27T02:16:56;103523.75;;;5.54;82.84
78383;BME280;67668;52.294;4.692;2024-01-27T02:19:21;103522.09;;;5.51;82.42
78383;BME280;67668;52.294;4.692;2024-01-27T02:21:46;103525.59;;;5.50;82.43
78383;BME280;67668;52.294;4.692;2024-01-27T02:24:12;103524.81;;;5.48;82.57
78383;BME280;67668;52.294;4.692;2024-01-27T02:26:37;103531.00;;;5.46;82.95
78383;BME280;67668;52.294;4.692;2024-01-27T02:29:02;103533.63;;;5.46;82.60
78383;BME280;67668;52.294;4.692;2024-01-27T02:31:28;103539.78;;;5.45;82.72
78383;BME280;67668;52.294;4.692;2024-01-27T02:33:53;103528.41;;;5.44;82.92
78383;BME280;67668;52.294;4.692;2024-01-27T02:36:19;103532.84;;;5.42;83.06
78383;BME280;67668;52.294;4.692;2024-01-27T02:38:44;103535.50;;;5.41;82.69
78383;BME280;67668;52.294;4.692;2024-01-27T02:41:10;103532.94;;;5.39;83.00
78383;BME280;67668;52.294;4.692;2024-01-27T02:43:36;103536.47;;;5.38;82.69
78383;BME280;67668;52.294;4.692;2024-01-27T02:46:01;103533.94;;;5.35;82.29
78383;BME280;67668;52.294;4.692;2024-01-27T02:48:27;103530.44;;;5.35;82.30
78383;BME280;67668;52.294;4.692;2024-01-27T02:50:52;103529.63;;;5.33;82.97
78383;BME280;67668;52.294;4.692;2024-01-27T02:53:18;103535.78;;;5.32;82.39
78383;BME280;67668;52.294;4.692;2024-01-27T02:55:43;103541.91;;;5.31;82.88
78383;BME280;67668;52.294;4.692;2024-01-27T02:58:09;103541.13;;;5.29;82.81
78383;BME280;67668;52.294;4.692;2024-01-27T03:00:34;103533.25;;;5.29;83.12
78383;BME280;67668;52.294;4.692;2024-01-27T03:03:00;103526.31;;;5.26;82.72
78383;BME280;67668;52.294;4.692;2024-01-27T03:05:25;103518.47;;;5.25;82.67
78383;BME280;67668;52.294;4.692;2024-01-27T03:07:50;103522.00;;;5.24;82.95
78383;BME280;67668;52.294;4.692;2024-01-27T03:10:16;103524.66;;;5.22;82.65
78383;BME280;67668;52.294;4.692;2024-01-27T03:12:41;103521.19;;;5.21;83.19
78383;BME280;67668;52.294;4.692;2024-01-27T03:15:06;103526.50;;;5.20;82.79
78383;BME280;67668;52.294;4.692;2024-01-27T03:17:33;103529.13;;;5.18;82.72
78383;BME280;67668;52.294;4.692;2024-01-27T03:19:58;103537.91;;;5.17;82.74
78383;BME280;67668;52.294;4.692;2024-01-27T03:22:23;103535.34;;;5.16;82.44
78383;BME280;67668;52.294;4.692;2024-01-27T03:24:49;103533.66;;;5.13;83.00
78383;BME280;67668;52.294;4.692;2024-01-27T03:27:16;103530.16;;;5.13;82.50
78383;BME280;67668;52.294;4.692;2024-01-27T03:29:42;103520.56;;;5.12;82.75
78383;BME280;67668;52.294;4.692;2024-01-27T03:32:07;103502.22;;;5.10;82.81
78383;BME280;67668;52.294;4.692;2024-01-27T03:34:32;103519.78;;;5.08;83.21
78383;BME280;67668;52.294;4.692;2024-01-27T03:36:57;103525.94;;;5.07;83.63
78383;BME280;67668;52.294;4.692;2024-01-27T03:39:23;103538.22;;;5.07;83.47
78383;BME280;67668;52.294;4.692;2024-01-27T03:41:48;103539.09;;;5.06;83.30
78383;BME280;67668;52.294;4.692;2024-01-27T03:44:13;103542.63;;;5.05;83.35
78383;BME280;67668;52.294;4.692;2024-01-27T03:46:39;103552.31;;;5.03;83.15
78383;BME280;67668;52.294;4.692;2024-01-27T03:49:04;103554.94;;;5.03;83.38
78383;BME280;67668;52.294;4.692;2024-01-27T03:51:30;103543.59;;;5.01;83.39
78383;BME280;67668;52.294;4.692;2024-01-27T03:53:55;103537.50;;;5.00;83.53
78383;BME280;67668;52.294;4.692;2024-01-27T03:56:20;103531.44;;;4.98;84.00
78383;BME280;67668;52.294;4.692;2024-01-27T03:58:46;103532.38;;;4.96;83.30
78383;BME280;67668;52.294;4.692;2024-01-27T04:01:11;103527.13;;;4.96;83.94
78383;BME280;67668;52.294;4.692;2024-01-27T04:03:36;103539.44;;;4.94;83.78
78383;BME280;67668;52.294;4.692;2024-01-27T04:06:02;103553.44;;;4.93;84.04
78383;BME280;67668;52.294;4.692;2024-01-27T04:08:31;103543.84;;;4.92;84.06
78383;BME280;67668;52.294;4.692;2024-01-27T04:10:56;103539.47;;;4.91;83.39
78383;BME280;67668;52.294;4.692;2024-01-27T04:13:21;103543.03;;;4.90;83.58
78383;BME280;67668;52.294;4.692;2024-01-27T04:15:47;103542.19;;;4.88;83.68
78383;BME280;67668;52.294;4.692;2024-01-27T04:18:12;103537.88;;;4.87;84.30
78383;BME280;67668;52.294;4.692;2024-01-27T04:20:38;103541.38;;;4.86;84.37
78383;BME280;67668;52.294;4.692;2024-01-27T04:23:03;103539.66;;;4.85;83.80
78383;BME280;67668;52.294;4.692;2024-01-27T04:25:29;103541.47;;;4.83;84.08
78383;BME280;67668;52.294;4.692;2024-01-27T04:27:54;103546.72;;;4.83;83.87
78383;BME280;67668;52.294;4.692;2024-01-27T04:30:19;103552.84;;;4.82;83.98
78383;BME280;67668;52.294;4.692;2024-01-27T04:32:45;103554.66;;;4.80;83.66
78383;BME280;67668;52.294;4.692;2024-01-27T04:35:11;103553.78;;;4.79;84.14
78383;BME280;67668;52.294;4.692;2024-01-27T04:37:36;103546.81;;;4.78;83.89
78383;BME280;67668;52.294;4.692;2024-01-27T04:40:06;103546.00;;;4.76;83.91
78383;BME280;67668;52.294;4.692;2024-01-27T04:42:39;103556.50;;;4.76;84.13
78383;BME280;67668;52.294;4.692;2024-01-27T04:45:05;103558.28;;;4.74;83.81
78383;BME280;67668;52.294;4.692;2024-01-27T04:47:31;103555.69;;;4.73;84.02
78383;BME280;67668;52.294;4.692;2024-01-27T04:49:56;103551.31;;;4.73;83.96
78383;BME280;67668;52.294;4.692;2024-01-27T04:52:25;103547.03;;;4.71;83.87
78383;BME280;67668;52.294;4.692;2024-01-27T04:54:51;103548.81;;;4.68;83.57
78383;BME280;67668;52.294;4.692;2024-01-27T04:57:16;103547.03;;;4.69;84.32
78383;BME280;67668;52.294;4.692;2024-01-27T04:59:42;103538.38;;;4.67;83.86
78383;BME280;67668;52.294;4.692;2024-01-27T05:02:07;103546.22;;;4.67;84.09
78383;BME280;67668;52.294;4.692;2024-01-27T05:04:32;103537.53;;;4.65;84.08
78383;BME280;67668;52.294;4.692;2024-01-27T05:06:58;103541.03;;;4.64;84.30
78383;BME280;67668;52.294;4.692;2024-01-27T05:09:23;103547.19;;;4.63;84.26
78383;BME280;67668;52.294;4.692;2024-01-27T05:11:48;103546.34;;;4.62;84.15
78383;BME280;67668;52.294;4.692;2024-01-27T05:14:16;103547.22;;;4.61;84.30
78383;BME280;67668;52.294;4.692;2024-01-27T05:16:42;103544.66;;;4.60;84.01
78383;BME280;67668;52.294;4.692;2024-01-27T05:19:07;103549.03;;;4.59;84.28
78383;BME280;67668;52.294;4.692;2024-01-27T05:21:32;103550.78;;;4.59;84.51
78383;BME280;67668;52.294;4.692;2024-01-27T05:23:58;103542.13;;;4.55;84.58
78383;BME280;67668;52.294;4.692;2024-01-27T05:26:23;103548.25;;;4.56;84.42
78383;BME280;67668;52.294;4.692;2024-01-27T05:28:49;103549.13;;;4.55;84.23
78383;BME280;67668;52.294;4.692;2024-01-27T05:31:15;103558.75;;;4.54;84.06
78383;BME280;67668;52.294;4.692;2024-01-27T05:33:42;103562.31;;;4.52;84.05
78383;BME280;67668;52.294;4.692;2024-01-27T05:36:07;103561.44;;;4.53;84.19
78383;BME280;67668;52.294;4.692;2024-01-27T05:38:33;103558.84;;;4.51;83.96
78383;BME280;67668;52.294;4.692;2024-01-27T05:41:01;103554.50;;;4.50;84.32
78383;BME280;67668;52.294;4.692;2024-01-27T05:43:27;103554.53;;;4.49;84.24
78383;BME280;67668;52.294;4.692;2024-01-27T05:45:53;103551.97;;;4.47;84.14
78383;BME280;67668;52.294;4.692;2024-01-27T05:48:18;103543.22;;;4.47;84.48
78383;BME280;67668;52.294;4.692;2024-01-27T05:50:43;103550.22;;;4.46;84.48
78383;BME280;67668;52.294;4.692;2024-01-27T05:53:09;103555.53;;;4.43;84.26
78383;BME280;67668;52.294;4.692;2024-01-27T05:55:34;103552.06;;;4.43;84.97
78383;BME280;67668;52.294;4.692;2024-01-27T05:57:59;103552.06;;;4.43;84.96
78383;BME280;67668;52.294;4.692;2024-01-27T06:00:25;103534.59;;;4.42;85.07
78383;BME280;67668;52.294;4.692;2024-01-27T06:02:50;103533.72;;;4.41;84.86
78383;BME280;67668;52.294;4.692;2024-01-27T06:05:15;103545.13;;;4.40;84.65
78383;BME280;67668;52.294;4.692;2024-01-27T06:07:41;103543.41;;;4.39;84.67
78383;BME280;67668;52.294;4.692;2024-01-27T06:10:08;103539.91;;;4.39;85.13
78383;BME280;67668;52.294;4.692;2024-01-27T06:12:33;103542.53;;;4.39;84.80
78383;BME280;67668;52.294;4.692;2024-01-27T06:14:59;103544.28;;;4.38;84.88
78383;BME280;67668;52.294;4.692;2024-01-27T06:17:25;103551.28;;;4.38;84.93
78383;BME280;67668;52.294;4.692;2024-01-27T06:19:50;103552.19;;;4.37;84.81
78383;BME280;67668;52.294;4.692;2024-01-27T06:22:15;103545.22;;;4.36;85.09
78383;BME280;67668;52.294;4.692;2024-01-27T06:24:44;103549.59;;;4.35;84.97
78383;BME280;67668;52.294;4.692;2024-01-27T06:27:10;103537.38;;;4.34;85.09
78383;BME280;67668;52.294;4.692;2024-01-27T06:29:35;103546.16;;;4.33;85.36
78383;BME280;67668;52.294;4.692;2024-01-27T06:32:00;103552.28;;;4.32;85.12
78383;BME280;67668;52.294;4.692;2024-01-27T06:34:26;103550.56;;;4.31;84.88
78383;BME280;67668;52.294;4.692;2024-01-27T06:36:51;103559.34;;;4.30;85.28
78383;BME280;67668;52.294;4.692;2024-01-27T06:39:16;103558.47;;;4.30;85.12
78383;BME280;67668;52.294;4.692;2024-01-27T06:41:42;103559.38;;;4.29;84.91
78383;BME280;67668;52.294;4.692;2024-01-27T06:44:07;103555.88;;;4.28;85.25
78383;BME280;67668;52.294;4.692;2024-01-27T06:46:33;103561.13;;;4.28;85.48
78383;BME280;67668;52.294;4.692;2024-01-27T06:48:58;103559.41;;;4.27;84.97
78383;BME280;67668;52.294;4.692;2024-01-27T06:51:23;103552.44;;;4.26;85.47
78383;BME280;67668;52.294;4.692;2024-01-27T06:53:49;103559.44;;;4.26;85.52
78383;BME280;67668;52.294;4.692;2024-01-27T06:56:14;103563.78;;;4.27;85.61
78383;BME280;67668;52.294;4.692;2024-01-27T06:58:40;103549.84;;;4.25;85.80
78383;BME280;67668;52.294;4.692;2024-01-27T07:01:06;103551.63;;;4.24;85.37
78383;BME280;67668;52.294;4.692;2024-01-27T07:03:32;103554.25;;;4.24;85.30
78383;BME280;67668;52.294;4.692;2024-01-27T07:05:57;103555.16;;;4.22;85.59
78383;BME280;67668;52.294;4.692;2024-01-27T07:08:26;103552.50;;;4.23;85.66
78383;BME280;67668;52.294;4.692;2024-01-27T07:10:51;103556.03;;;4.22;85.35
78383;BME280;67668;52.294;4.692;2024-01-27T07:13:16;103551.66;;;4.21;85.21
78383;BME280;67668;52.294;4.692;2024-01-27T07:15:42;103551.72;;;4.20;85.16
78383;BME280;67668;52.294;4.692;2024-01-27T07:18:07;103570.94;;;4.20;85.09
78383;BME280;67668;52.294;4.692;2024-01-27T07:20:33;103570.06;;;4.20;84.98
78383;BME280;67668;52.294;4.692;2024-01-27T07:22:59;103574.44;;;4.19;84.85
78383;BME280;67668;52.294;4.692;2024-01-27T07:25:24;103562.22;;;4.18;84.75
78383;BME280;67668;52.294;4.692;2024-01-27T07:27:49;103570.09;;;4.18;84.67
78383;BME280;67668;52.294;4.692;2024-01-27T07:30:15;103557.91;;;4.17;84.75
78383;BME280;67668;52.294;4.692;2024-01-27T07:32:40;103553.53;;;4.16;84.59
78383;BME280;67668;52.294;4.692;2024-01-27T07:35:06;103543.06;;;4.16;84.53
78383;BME280;67668;52.294;4.692;2024-01-27T07:37:31;103548.31;;;4.16;84.91
78383;BME280;67668;52.294;4.692;2024-01-27T07:39:57;103552.69;;;4.15;84.50
78383;BME280;67668;52.294;4.692;2024-01-27T07:42:22;103561.41;;;4.16;84.67
78383;BME280;67668;52.294;4.692;2024-01-27T07:44:47;103564.03;;;4.16;84.89
78383;BME280;67668;52.294;4.692;2024-01-27T07:47:14;103564.03;;;4.16;84.83
78383;BME280;67668;52.294;4.692;2024-01-27T07:49:39;103564.91;;;4.15;84.69
78383;BME280;67668;52.294;4.692;2024-01-27T07:52:05;103564.91;;;4.15;84.66
78383;BME280;67668;52.294;4.692;2024-01-27T07:54:30;103571.03;;;4.15;85.06
78383;BME280;67668;52.294;4.692;2024-01-27T07:57:00;103578.88;;;4.15;84.74
78383;BME280;67668;52.294;4.692;2024-01-27T07:59:25;103577.13;;;4.16;85.25
78383;BME280;67668;52.294;4.692;2024-01-27T08:01:50;103579.75;;;4.16;84.67
78383;BME280;67668;52.294;4.692;2024-01-27T08:04:15;103587.63;;;4.16;85.11
78383;BME280;67668;52.294;4.692;2024-01-27T08:06:49;103587.63;;;4.16;85.14
78383;BME280;67668;52.294;4.692;2024-01-27T08:09:15;103587.63;;;4.16;84.78
78383;BME280;67668;52.294;4.692;2024-01-27T08:11:41;103590.22;;;4.16;85.60
78383;BME280;67668;52.294;4.692;2024-01-27T08:14:06;103578.00;;;4.15;85.25
78383;BME280;67668;52.294;4.692;2024-01-27T08:16:31;103581.50;;;4.15;85.23
78383;BME280;67668;52.294;4.692;2024-01-27T08:18:56;103576.25;;;4.15;85.16
78383;BME280;67668;52.294;4.692;2024-01-27T08:21:22;103572.78;;;4.15;85.45
78383;BME280;67668;52.294;4.692;2024-01-27T08:23:48;103578.06;;;4.13;85.30
78383;BME280;67668;52.294;4.692;2024-01-27T08:26:13;103578.00;;;4.15;85.21
78383;BME280;67668;52.294;4.692;2024-01-27T08:28:39;103571.91;;;4.14;85.79
78383;BME280;67668;52.294;4.692;2024-01-27T08:31:04;103571.91;;;4.14;85.89
78383;BME280;67668;52.294;4.692;2024-01-27T08:33:30;103584.13;;;4.15;85.61
78383;BME280;67668;52.294;4.692;2024-01-27T08:35:55;103585.88;;;4.16;86.11
78383;BME280;67668;52.294;4.692;2024-01-27T08:38:21;103582.38;;;4.16;86.07
78383;BME280;67668;52.294;4.692;2024-01-27T08:40:46;103588.47;;;4.16;85.76
78383;BME280;67668;52.294;4.692;2024-01-27T08:43:11;103591.06;;;4.18;85.88
78383;BME280;67668;52.294;4.692;2024-01-27T08:45:37;103592.84;;;4.18;85.90
78383;BME280;67668;52.294;4.692;2024-01-27T08:48:04;103591.06;;;4.18;86.32
78383;BME280;67668;52.294;4.692;2024-01-27T08:50:29;103593.69;;;4.18;86.51
78383;BME280;67668;52.294;4.692;2024-01-27T08:52:54;103597.16;;;4.20;86.47
78383;BME280;67668;52.294;4.692;2024-01-27T08:55:20;103602.38;;;4.20;86.92
78383;BME280;67668;52.294;4.692;2024-01-27T08:57:49;103604.16;;;4.18;86.72
78383;BME280;67668;52.294;4.692;2024-01-27T09:00:14;103604.16;;;4.18;86.87
78383;BME280;67668;52.294;4.692;2024-01-27T09:02:41;103602.38;;;4.20;87.17
78383;BME280;67668;52.294;4.692;2024-01-27T09:05:07;103600.59;;;4.22;87.33
78383;BME280;67668;52.294;4.692;2024-01-27T09:07:33;103597.94;;;4.24;87.19
78383;BME280;67668;52.294;4.692;2024-01-27T09:09:59;103600.50;;;4.25;87.37
78383;BME280;67668;52.294;4.692;2024-01-27T09:12:24;103608.38;;;4.25;87.37
78383;BME280;67668;52.294;4.692;2024-01-27T09:14:49;103613.53;;;4.28;87.72
78383;BME280;67668;52.294;4.692;2024-01-27T09:17:15;103610.03;;;4.29;88.10
78383;BME280;67668;52.294;4.692;2024-01-27T09:19:40;103610.03;;;4.29;88.23
78383;BME280;67668;52.294;4.692;2024-01-27T09:22:06;103610.03;;;4.31;88.69
78383;BME280;67668;52.294;4.692;2024-01-27T09:24:31;103607.34;;;4.32;88.94
78383;BME280;67668;52.294;4.692;2024-01-27T09:26:57;103615.22;;;4.32;89.31
78383;BME280;67668;52.294;4.692;2024-01-27T09:29:22;103619.56;;;4.33;89.85
78383;BME280;67668;52.294;4.692;2024-01-27T09:31:47;103630.88;;;4.35;90.63
78383;BME280;67668;52.294;4.692;2024-01-27T09:34:13;103623.00;;;4.35;90.16
78383;BME280;67668;52.294;4.692;2024-01-27T09:36:38;103629.09;;;4.37;90.37
78383;BME280;67668;52.294;4.692;2024-01-27T09:39:04;103634.28;;;4.39;91.00
78383;BME280;67668;52.294;4.692;2024-01-27T09:41:31;103641.28;;;4.40;91.00
78383;BME280;67668;52.294;4.692;2024-01-27T09:44:03;103648.19;;;4.44;91.09
78383;BME280;67668;52.294;4.692;2024-01-27T09:46:29;103642.00;;;4.46;92.25
78383;BME280;67668;52.294;4.692;2024-01-27T09:48:55;103640.16;;;4.50;92.59
78383;BME280;67668;52.294;4.692;2024-01-27T09:51:21;103644.47;;;4.54;92.93
78383;BME280;67668;52.294;4.692;2024-01-27T09:53:47;103651.34;;;4.58;93.41
78383;BME280;67668;52.294;4.692;2024-01-27T09:56:12;103645.19;;;4.60;93.83
78383;BME280;67668;52.294;4.692;2024-01-27T09:58:43;103654.69;;;4.64;94.15
78383;BME280;67668;52.294;4.692;2024-01-27T10:01:10;103650.22;;;4.68;94.74
78383;BME280;67668;52.294;4.692;2024-01-27T10:03:35;103651.88;;;4.74;95.16
78383;BME280;67668;52.294;4.692;2024-01-27T10:06:03;103640.31;;;4.81;95.87
78383;BME280;67668;52.294;4.692;2024-01-27T10:08:32;103658.56;;;4.87;96.01
78383;BME280;67668;52.294;4.692;2024-01-27T10:10:58;103654.06;;;4.92;95.90
78383;BME280;67668;52.294;4.692;2024-01-27T10:13:24;103658.25;;;4.99;95.75
78383;BME280;67668;52.294;4.692;2024-01-27T10:16:06;103659.84;;;5.06;95.78
78383;BME280;67668;52.294;4.692;2024-01-27T10:18:32;103655.25;;;5.14;96.15
78383;BME280;67668;52.294;4.692;2024-01-27T10:20:58;103667.31;;;5.22;96.16
78383;BME280;67668;52.294;4.692;2024-01-27T10:23:24;103668.88;;;5.30;95.20
78383;BME280;67668;52.294;4.692;2024-01-27T10:25:50;103659.88;;;5.38;95.44
78383;BME280;67668;52.294;4.692;2024-01-27T10:28:16;103668.44;;;5.46;95.74
78383;BME280;67668;52.294;4.692;2024-01-27T10:30:42;103664.69;;;5.56;95.13
78383;BME280;67668;52.294;4.692;2024-01-27T10:33:08;103665.31;;;5.66;95.46
78383;BME280;67668;52.294;4.692;2024-01-27T10:35:35;103654.44;;;5.78;96.07
78383;BME280;67668;52.294;4.692;2024-01-27T10:38:01;103657.72;;;5.88;95.60
78383;BME280;67668;52.294;4.692;2024-01-27T10:40:27;103659.16;;;5.99;95.86
78383;BME280;67668;52.294;4.692;2024-01-27T10:43:06;103660.56;;;6.11;96.46
78383;BME280;67668;52.294;4.692;2024-01-27T10:45:38;103658.50;;;6.22;96.58
78383;BME280;67668;52.294;4.692;2024-01-27T10:48:05;103662.50;;;6.34;96.77
78383;BME280;67668;52.294;4.692;2024-01-27T10:50:40;103664.75;;;6.47;96.86
78383;BME280;67668;52.294;4.692;2024-01-27T10:53:19;103656.50;;;6.59;95.93
78383;BME280;67668;52.294;4.692;2024-01-27T10:55:46;103650.84;;;6.71;95.90
78383;BME280;67668;52.294;4.692;2024-01-27T10:58:12;103659.19;;;6.84;95.74
78383;BME280;67668;52.294;4.692;2024-01-27T11:00:38;103650.09;;;6.94;95.65
78383;BME280;67668;52.294;4.692;2024-01-27T11:03:06;103650.56;;;7.07;95.93
78383;BME280;67668;52.294;4.692;2024-01-27T11:05:34;103650.25;;;7.16;95.17
78383;BME280;67668;52.294;4.692;2024-01-27T11:08:00;103643.75;;;7.26;94.85
78383;BME280;67668;52.294;4.692;2024-01-27T11:10:26;103649.53;;;7.37;94.90
78383;BME280;67668;52.294;4.692;2024-01-27T11:12:52;103654.44;;;7.48;93.59
78383;BME280;67668;52.294;4.692;2024-01-27T11:15:20;103663.75;;;7.58;93.27
78383;BME280;67668;52.294;4.692;2024-01-27T11:17:45;103651.91;;;7.69;93.18
78383;BME280;67668;52.294;4.692;2024-01-27T11:20:11;103649.81;;;7.79;91.66
78383;BME280;67668;52.294;4.692;2024-01-27T11:22:37;103647.72;;;7.89;91.49
78383;BME280;67668;52.294;4.692;2024-01-27T11:25:06;103642.97;;;7.98;90.76
78383;BME280;67668;52.294;4.692;2024-01-27T11:27:32;103647.78;;;8.10;91.29
78383;BME280;67668;52.294;4.692;2024-01-27T11:29:57;103636.88;;;8.19;90.27
78383;BME280;67668;52.294;4.692;2024-01-27T11:32:22;103635.59;;;8.31;89.84
78383;BME280;67668;52.294;4.692;2024-01-27T11:34:48;103639.66;;;8.40;89.45
78383;BME280;67668;52.294;4.692;2024-01-27T11:37:16;103640.16;;;8.49;89.04
78383;BME280;67668;52.294;4.692;2024-01-27T11:39:43;103649.50;;;8.58;88.58
78383;BME280;67668;52.294;4.692;2024-01-27T11:42:09;103637.72;;;8.66;86.75
78383;BME280;67668;52.294;4.692;2024-01-27T11:44:37;103639.97;;;8.75;86.00
78383;BME280;67668;52.294;4.692;2024-01-27T11:47:02;103636.06;;;8.86;86.19
78383;BME280;67668;52.294;4.692;2024-01-27T11:49:28;103635.69;;;8.95;84.90
78383;BME280;67668;52.294;4.692;2024-01-27T11:51:53;103637.88;;;9.05;84.80
78383;BME280;67668;52.294;4.692;2024-01-27T11:54:19;103637.44;;;9.16;84.96
78383;BME280;67668;52.294;4.692;2024-01-27T11:56:44;103616.75;;;9.25;85.08
78383;BME280;67668;52.294;4.692;2024-01-27T11:59:10;103618.94;;;9.36;84.37
78383;BME280;67668;52.294;4.692;2024-01-27T12:01:36;103608.56;;;9.52;85.63
78383;BME280;67668;52.294;4.692;2024-01-27T12:04:03;103606.31;;;9.63;84.43
78383;BME280;67668;52.294;4.692;2024-01-27T12:06:29;103599.75;;;9.71;84.54
78383;BME280;67668;52.294;4.692;2024-01-27T12:08:55;103586.91;;;9.82;84.78
78383;BME280;67668;52.294;4.692;2024-01-27T12:11:21;103594.38;;;9.93;84.35
78383;BME280;67668;52.294;4.692;2024-01-27T12:13:47;103601.97;;;10.01;83.26
78383;BME280;67668;52.294;4.692;2024-01-27T12:16:12;103611.19;;;10.11;82.74
78383;BME280;67668;52.294;4.692;2024-01-27T12:18:37;103618.63;;;10.21;82.74
78383;BME280;67668;52.294;4.692;2024-01-27T12:21:03;103616.41;;;10.31;82.27
78383;BME280;67668;52.294;4.692;2024-01-27T12:23:28;103605.28;;;10.43;81.55
78383;BME280;67668;52.294;4.692;2024-01-27T12:25:54;103609.09;;;10.55;81.67
78383;BME280;67668;52.294;4.692;2024-01-27T12:28:22;103603.66;;;10.58;79.15
78383;BME280;67668;52.294;4.692;2024-01-27T12:30:49;103608.75;;;10.62;79.05
78383;BME280;67668;52.294;4.692;2024-01-27T12:33:15;103612.97;;;10.66;77.51
78383;BME280;67668;52.294;4.692;2024-01-27T12:35:40;103603.94;;;10.70;75.41
78383;BME280;67668;52.294;4.692;2024-01-27T12:38:05;103610.63;;;10.77;76.72
78383;BME280;67668;52.294;4.692;2024-01-27T12:40:31;103603.41;;;10.81;75.13
78383;BME280;67668;52.294;4.692;2024-01-27T12:42:57;103595.28;;;10.84;75.39
78383;BME280;67668;52.294;4.692;2024-01-27T12:45:22;103590.69;;;10.87;75.15
78383;BME280;67668;52.294;4.692;2024-01-27T12:47:48;103593.06;;;10.94;74.87
78383;BME280;67668;52.294;4.692;2024-01-27T12:50:13;103598.97;;;10.99;73.66
78383;BME280;67668;52.294;4.692;2024-01-27T12:52:38;103594.16;;;11.07;74.88